createdAt,value
2023-10-02T00:02:03.743Z,53.82
2023-10-02T00:07:03.606Z,53.88
2023-10-02T00:12:03.511Z,53.95
2023-10-02T00:17:03.477Z,54.02
2023-10-02T00:22:03.381Z,54.09
2023-10-02T00:27:03.320Z,54.12
2023-10-02T00:32:03.270Z,54.17
2023-10-02T00:37:03.220Z,54.23
2023-10-02T00:42:03.126Z,54.28
2023-10-02T00:47:03.158Z,54.33
2023-10-02T00:52:03.066Z,54.38
2023-10-02T00:57:02.951Z,54.44
2023-10-02T01:02:02.918Z,54.53
2023-10-02T01:07:02.818Z,54.58
2023-10-02T01:12:02.724Z,54.63
2023-10-02T01:17:02.763Z,54.67
2023-10-02T01:22:02.578Z,54.79
2023-10-02T01:27:02.564Z,54.87
2023-10-02T01:32:02.477Z,54.96
2023-10-02T01:37:02.420Z,55.04
2023-10-02T01:42:02.329Z,55.07
2023-10-02T01:47:02.305Z,55.12
2023-10-02T01:52:02.193Z,55.16
2023-10-02T01:57:02.126Z,55.23
2023-10-02T02:02:02.141Z,55.31
2023-10-02T02:07:02.016Z,55.36
2023-10-02T02:12:01.919Z,55.41
2023-10-02T02:17:01.995Z,55.48
2023-10-02T02:22:01.800Z,55.55
2023-10-02T02:27:01.745Z,55.59
2023-10-02T02:32:01.701Z,55.62
2023-10-02T02:37:01.624Z,55.66
2023-10-02T02:42:01.522Z,55.72
2023-10-02T02:47:01.492Z,55.77
2023-10-02T02:52:01.388Z,55.82
2023-10-02T02:57:01.366Z,55.86
2023-10-02T03:02:01.331Z,55.93
2023-10-02T03:07:01.228Z,55.98
2023-10-02T03:12:01.145Z,56.03
2023-10-02T03:17:01.133Z,56.08
2023-10-02T03:22:01.009Z,56.11
2023-10-02T03:27:00.953Z,56.15
2023-10-02T03:32:00.924Z,56.21
2023-10-02T03:37:00.846Z,56.23
2023-10-02T03:42:00.739Z,56.29
2023-10-02T03:47:00.796Z,56.31
2023-10-02T03:52:00.651Z,56.35
2023-10-02T03:57:00.603Z,56.41
2023-10-02T04:02:00.533Z,56.48
2023-10-02T04:07:00.442Z,56.54
2023-10-02T04:12:00.333Z,56.55
2023-10-02T04:17:00.326Z,56.62
2023-10-02T04:22:00.208Z,56.68
2023-10-02T04:27:00.250Z,56.72
2023-10-02T04:32:00.131Z,56.77
2023-10-02T04:37:00.031Z,56.83
2023-10-02T04:41:59.944Z,56.89
2023-10-02T04:46:59.927Z,56.94
2023-10-02T04:51:59.832Z,57.00
2023-10-02T04:56:59.781Z,57.05
2023-10-02T05:01:59.703Z,57.10
2023-10-02T05:06:59.625Z,57.16
2023-10-02T05:11:59.540Z,57.20
2023-10-02T05:16:59.642Z,57.23
2023-10-02T05:21:59.395Z,57.25
2023-10-02T05:26:59.384Z,57.30
2023-10-02T05:31:59.422Z,57.32
2023-10-02T05:36:59.236Z,57.29
2023-10-02T05:41:59.150Z,57.25
2023-10-02T05:46:59.241Z,57.18
2023-10-02T05:51:59.039Z,57.10
2023-10-02T05:56:58.951Z,56.93
2023-10-02T06:01:58.973Z,56.75
2023-10-02T06:06:58.848Z,56.59
2023-10-02T06:11:58.753Z,56.41
2023-10-02T06:16:58.801Z,56.29
2023-10-02T06:21:58.646Z,56.16
2023-10-02T06:26:58.799Z,56.06
2023-10-02T06:31:58.533Z,55.99
2023-10-02T06:36:58.449Z,55.98
2023-10-02T06:41:58.365Z,56.04
2023-10-02T06:46:58.404Z,55.93
2023-10-02T06:51:58.243Z,54.98
2023-10-02T06:56:58.208Z,53.47
2023-10-02T07:01:58.159Z,51.81
2023-10-02T07:06:58.048Z,50.12
2023-10-02T07:11:57.991Z,49.27
2023-10-02T07:16:57.976Z,48.55
2023-10-02T07:21:57.843Z,48.14
2023-10-02T07:26:57.855Z,47.86
2023-10-02T07:31:58.188Z,47.08
2023-10-02T07:36:57.655Z,46.44
2023-10-02T07:41:57.568Z,45.69
2023-10-02T07:46:57.570Z,45.74
2023-10-02T07:51:57.437Z,45.71
2023-10-02T07:56:57.394Z,46.08
2023-10-02T08:01:57.427Z,45.62
2023-10-02T08:07:08.605Z,44.96
2023-10-02T08:11:58.196Z,44.49
2023-10-02T08:16:57.142Z,44.18
2023-10-02T08:21:57.059Z,43.30
2023-10-02T08:42:08.121Z,37.53
2023-10-02T08:47:08.081Z,36.07
2023-10-02T08:52:07.972Z,34.49
2023-10-02T08:57:08.189Z,33.53
2023-10-02T09:02:07.935Z,31.84
2023-10-02T09:07:07.766Z,29.94
2023-10-02T09:12:07.720Z,29.14
2023-10-02T09:17:07.670Z,29.02
2023-10-02T09:22:07.590Z,29.05
2023-10-02T09:27:07.500Z,28.86
2023-10-02T09:32:07.490Z,28.62
2023-10-02T09:37:41.740Z,28.10
2023-10-02T09:42:08.473Z,28.24
2023-10-02T09:47:07.303Z,28.22
2023-10-02T09:52:07.201Z,27.97
2023-10-02T09:57:07.171Z,28.46
2023-10-02T10:02:07.148Z,28.32
2023-10-02T10:07:06.976Z,28.56
2023-10-02T10:12:06.970Z,29.87
2023-10-02T10:17:06.895Z,29.37
2023-10-02T10:22:06.808Z,29.04
2023-10-02T10:27:06.740Z,29.26
2023-10-02T10:32:06.748Z,28.14
2023-10-02T10:37:06.607Z,27.64
2023-10-02T10:42:06.562Z,27.89
2023-10-02T10:47:06.524Z,27.47
2023-10-02T10:52:06.495Z,28.05
2023-10-02T10:57:06.378Z,29.14
2023-10-02T11:02:06.382Z,28.79
2023-10-02T11:07:06.238Z,29.71
2023-10-02T11:12:06.170Z,30.15
2023-10-02T11:17:06.523Z,30.84
2023-10-02T11:22:06.059Z,30.22
2023-10-02T11:27:05.979Z,31.06
2023-10-02T11:32:05.996Z,31.49
2023-10-02T11:37:05.862Z,30.82
2023-10-02T11:42:05.823Z,30.87
2023-10-02T11:47:05.762Z,30.63
2023-10-02T11:52:05.678Z,31.11
2023-10-02T11:57:05.595Z,30.58
2023-10-02T12:02:05.625Z,29.97
2023-10-02T12:07:05.487Z,30.00
2023-10-02T12:12:05.430Z,29.99
2023-10-02T12:17:05.370Z,30.74
2023-10-02T12:22:08.754Z,30.87
2023-10-02T12:27:05.222Z,31.33
2023-10-02T12:32:05.216Z,32.14
2023-10-02T12:37:05.092Z,34.97
2023-10-02T12:42:05.057Z,36.65
2023-10-02T12:47:05.085Z,37.28
2023-10-02T12:52:04.925Z,37.87
2023-10-02T12:57:04.829Z,38.25
2023-10-02T13:02:04.825Z,38.22
2023-10-02T13:07:04.695Z,38.34
2023-10-02T13:12:04.654Z,38.92
2023-10-02T13:17:04.728Z,38.92
2023-10-02T13:22:04.517Z,38.99
2023-10-02T13:27:04.438Z,38.65
2023-10-02T13:32:04.873Z,38.72
2023-10-02T13:37:04.312Z,38.89
2023-10-02T13:42:04.260Z,38.77
2023-10-02T13:47:04.231Z,38.81
2023-10-02T13:52:04.133Z,38.91
2023-10-02T13:57:04.062Z,38.88
2023-10-02T14:02:04.105Z,39.08
2023-10-02T14:07:03.918Z,38.70
2023-10-02T14:12:03.885Z,39.12
2023-10-02T14:17:04.847Z,39.26
2023-10-02T14:22:03.745Z,39.08
2023-10-02T14:27:03.675Z,39.08
2023-10-02T14:32:03.649Z,39.09
2023-10-02T14:37:03.524Z,39.66
2023-10-02T14:42:03.445Z,40.04
2023-10-02T14:47:03.418Z,40.50
2023-10-02T14:52:03.369Z,40.80
2023-10-02T14:57:03.267Z,40.84
2023-10-02T15:02:03.255Z,40.66
2023-10-02T15:07:03.135Z,40.89
2023-10-02T15:12:03.087Z,41.18
2023-10-02T15:17:03.086Z,41.57
2023-10-02T15:22:02.965Z,41.67
2023-10-02T15:27:02.877Z,41.59
2023-10-02T15:32:02.914Z,41.78
2023-10-02T15:37:02.739Z,41.97
2023-10-02T15:42:02.681Z,41.92
2023-10-02T15:47:02.658Z,42.16
2023-10-02T15:52:02.575Z,42.26
2023-10-02T15:57:02.460Z,42.54
2023-10-02T16:02:02.465Z,42.77
2023-10-02T16:07:04.514Z,42.97
2023-10-02T16:12:02.295Z,43.20
2023-10-02T16:17:02.360Z,43.55
2023-10-02T16:22:02.167Z,43.85
2023-10-02T16:27:02.071Z,44.14
2023-10-02T16:32:01.985Z,44.31
2023-10-02T16:37:01.902Z,44.44
2023-10-02T16:42:01.873Z,44.58
2023-10-02T16:47:01.818Z,44.74
2023-10-02T16:52:01.733Z,44.94
2023-10-02T16:57:01.706Z,45.18
2023-10-02T17:02:01.714Z,45.38
2023-10-02T17:07:01.512Z,45.51
2023-10-02T17:12:01.469Z,45.64
2023-10-02T17:17:01.599Z,45.82
2023-10-02T17:22:01.337Z,45.98
2023-10-02T17:27:01.278Z,46.05
2023-10-02T17:32:01.321Z,46.08
2023-10-02T17:37:01.157Z,46.14
2023-10-02T17:42:01.107Z,46.19
2023-10-02T17:47:01.072Z,46.28
2023-10-02T17:52:00.956Z,46.36
2023-10-02T17:57:00.859Z,46.43
2023-10-02T18:02:00.914Z,46.50
2023-10-02T18:07:00.769Z,46.59
2023-10-02T18:12:00.700Z,46.66
2023-10-02T18:17:00.598Z,46.72
2023-10-02T18:22:00.551Z,46.81
2023-10-02T18:27:00.457Z,46.89
2023-10-02T18:32:00.890Z,46.96
2023-10-02T18:37:00.388Z,47.07
2023-10-02T18:42:00.428Z,47.16
2023-10-02T18:47:00.176Z,47.24
2023-10-02T18:52:00.164Z,47.41
2023-10-02T18:57:00.096Z,47.55
2023-10-02T19:02:00.018Z,47.66
2023-10-02T19:06:59.931Z,47.76
2023-10-02T19:11:59.869Z,47.86
2023-10-02T19:16:59.809Z,47.93
2023-10-02T19:21:59.752Z,48.03
2023-10-02T19:26:59.670Z,48.11
2023-10-02T19:31:59.589Z,48.19
2023-10-02T19:36:59.554Z,48.24
2023-10-02T19:41:59.509Z,48.31
2023-10-02T19:46:59.378Z,48.39
2023-10-02T19:51:59.347Z,48.45
2023-10-02T19:56:59.238Z,48.53
2023-10-02T20:01:59.167Z,48.57
2023-10-02T20:06:59.123Z,48.60
2023-10-02T20:11:59.082Z,48.69
2023-10-02T20:16:58.978Z,48.80
2023-10-02T20:21:58.909Z,48.91
2023-10-02T20:26:58.846Z,49.03
2023-10-02T20:31:58.786Z,49.13
2023-10-02T20:36:58.723Z,49.21
2023-10-02T20:41:58.621Z,49.27
2023-10-02T20:47:07.915Z,49.38
2023-10-02T20:51:59.506Z,49.48
2023-10-02T20:56:58.443Z,49.56
2023-10-02T21:01:58.360Z,49.66
2023-10-02T21:06:58.320Z,49.74
2023-10-02T21:11:58.219Z,49.84
2023-10-02T21:16:58.179Z,49.91
2023-10-02T21:21:58.133Z,50.00
2023-10-02T21:26:58.064Z,50.09
2023-10-02T21:31:57.972Z,50.19
2023-10-02T21:36:57.909Z,50.26
2023-10-02T21:41:57.858Z,50.35
2023-10-02T21:46:57.776Z,50.41
2023-10-02T21:51:57.736Z,50.47
2023-10-02T21:56:57.642Z,50.53
2023-10-02T22:01:57.578Z,50.58
2023-10-02T22:06:57.507Z,50.67
2023-10-02T22:11:57.466Z,50.76
2023-10-02T22:16:57.379Z,50.83
2023-10-02T22:21:57.292Z,50.92
2023-10-02T22:26:57.238Z,51.00
2023-10-02T22:31:57.177Z,51.05
2023-10-02T22:36:57.101Z,51.11
2023-10-02T22:41:57.026Z,51.18
2023-10-02T22:46:57.157Z,51.22
2023-10-02T22:51:56.885Z,51.27
2023-10-02T22:56:56.831Z,51.31
2023-10-02T23:01:56.770Z,51.37
2023-10-02T23:06:56.718Z,51.47
2023-10-02T23:11:56.670Z,51.54
2023-10-02T23:16:56.656Z,51.64
2023-10-02T23:21:56.489Z,51.73
2023-10-02T23:26:56.442Z,51.82
2023-10-02T23:31:56.367Z,51.92
2023-10-02T23:36:56.285Z,52.01
2023-10-02T23:41:56.251Z,52.10
2023-10-02T23:46:56.230Z,52.18
2023-10-02T23:51:56.112Z,52.25
2023-10-02T23:56:56.062Z,52.33
